Time;durP1;ratioP1;P1;durP2;ratioP2;P2;SDS_P1;SDS_P2;PMS_P1;PMS_P2;Temp;Humidity;BMP_temperature;BMP_pressure;BME280_temperature;BME280_humidity;BME280_pressure;Samples;Min_cycle;Max_cycle;Signal;HPM_P1;HPM_P2
2023/04/07 00:02:01;;;;;;;29.90;22.73;;;9.00;99.90;;;;;;5104281;28;20494;-72
2023/04/07 00:04:28;;;;;;;32.97;24.73;;;9.00;99.90;;;;;;5090827;28;20464;-72
2023/04/07 00:06:55;;;;;;;30.60;25.50;;;8.90;99.90;;;;;;5099941;28;20476;-71
2023/04/07 00:09:21;;;;;;;30.40;25.20;;;9.00;99.90;;;;;;5095573;28;20844;-72
2023/04/07 00:11:50;;;;;;;31.37;24.23;;;9.00;99.90;;;;;;5092575;28;20476;-72
2023/04/07 00:14:17;;;;;;;36.73;25.63;;;9.00;99.90;;;;;;5095903;28;20469;-71
2023/04/07 00:16:44;;;;;;;35.07;25.83;;;9.00;99.90;;;;;;5093651;28;20964;-72
2023/04/07 00:19:11;;;;;;;34.10;27.17;;;9.00;99.90;;;;;;5098322;28;21006;-72
2023/04/07 00:21:38;;;;;;;39.20;26.37;;;9.00;99.90;;;;;;5095197;28;20471;-71
2023/04/07 00:24:06;;;;;;;44.83;30.97;;;8.90;99.90;;;;;;5098142;28;20511;-71
2023/04/07 00:26:33;;;;;;;40.40;27.13;;;9.00;99.90;;;;;;5100972;28;20564;-71
2023/04/07 00:29:04;;;;;;;34.03;25.20;;;9.00;99.90;;;;;;5097325;28;20970;-70
2023/04/07 00:31:31;;;;;;;38.17;26.67;;;8.90;99.90;;;;;;5092697;28;20451;-71
2023/04/07 00:33:58;;;;;;;37.13;26.87;;;8.90;99.90;;;;;;5094282;28;20493;-71
2023/04/07 00:36:26;;;;;;;36.50;25.57;;;8.80;99.90;;;;;;5099472;28;20465;-71
2023/04/07 00:38:52;;;;;;;38.43;26.27;;;8.80;99.90;;;;;;5097199;28;20573;-71
2023/04/07 00:41:19;;;;;;;42.80;27.70;;;8.70;99.90;;;;;;5090457;28;20485;-72
2023/04/07 00:43:47;;;;;;;42.33;27.87;;;8.70;99.90;;;;;;5097500;28;20510;-72
2023/04/07 00:46:15;;;;;;;39.47;27.40;;;8.70;99.90;;;;;;5091829;28;21033;-72
2023/04/07 00:48:42;;;;;;;43.77;29.00;;;8.70;99.90;;;;;;5099431;28;20471;-71
2023/04/07 00:51:09;;;;;;;41.90;26.73;;;8.70;99.90;;;;;;5096080;28;20479;-71
2023/04/07 00:53:36;;;;;;;46.70;28.73;;;8.70;99.90;;;;;;5096374;28;20495;-71
2023/04/07 00:56:02;;;;;;;48.53;26.23;;;8.70;99.90;;;;;;5107564;28;20460;-72
2023/04/07 00:58:29;;;;;;;53.30;30.73;;;8.60;99.90;;;;;;5102313;28;20811;-72
2023/04/07 01:01:04;;;;;;;41.13;27.40;;;8.70;99.90;;;;;;5083135;28;20843;-72
2023/04/07 01:03:39;;;;;;;47.90;28.43;;;8.70;99.90;;;;;;5096206;28;20460;-72
2023/04/07 01:06:08;;;;;;;43.37;27.27;;;8.70;99.90;;;;;;5087531;28;20477;-72
2023/04/07 01:08:42;;;;;;;47.37;29.17;;;8.70;99.90;;;;;;5095351;28;20458;-72
2023/04/07 01:11:17;;;;;;;47.07;29.93;;;8.70;99.90;;;;;;5106566;28;20536;-71
2023/04/07 01:13:48;;;;;;;48.83;28.67;;;8.70;99.90;;;;;;5097893;28;21032;-71
2023/04/07 01:16:22;;;;;;;52.20;29.80;;;8.60;99.90;;;;;;5101737;28;20450;-71
2023/04/07 01:18:54;;;;;;;47.00;27.70;;;8.60;99.90;;;;;;5099001;28;20456;-71
2023/04/07 01:21:27;;;;;;;49.43;28.87;;;8.60;99.90;;;;;;5083655;28;20780;-70
2023/04/07 01:24:10;;;;;;;55.57;28.67;;;8.60;99.90;;;;;;5095338;28;20462;-71
2023/04/07 01:26:38;;;;;;;45.80;26.67;;;8.60;99.90;;;;;;5098939;28;20522;-71
2023/04/07 01:29:39;;;;;;;53.47;29.40;;;8.50;99.90;;;;;;5102238;28;20792;-71
2023/04/07 01:32:11;;;;;;;49.70;28.53;;;8.60;99.90;;;;;;5087551;28;20462;-71
2023/04/07 01:34:40;;;;;;;58.30;30.90;;;8.60;99.90;;;;;;5098781;28;20464;-70
2023/04/07 01:37:08;;;;;;;52.37;31.10;;;8.60;99.90;;;;;;5102097;28;20879;-70
2023/04/07 01:39:38;;;;;;;52.30;28.63;;;8.60;99.90;;;;;;5095033;28;20465;-70
2023/04/07 01:42:07;;;;;;;65.83;31.20;;;8.60;99.90;;;;;;5106232;28;20471;-70
2023/04/07 01:44:35;;;;;;;54.33;28.47;;;8.60;99.90;;;;;;5097539;28;20768;-71
2023/04/07 01:47:04;;;;;;;51.90;28.83;;;8.60;99.90;;;;;;5097170;28;20971;-71
2023/04/07 01:49:35;;;;;;;43.20;25.97;;;8.60;99.90;;;;;;5097736;28;20963;-70
2023/04/07 01:52:03;;;;;;;59.57;31.10;;;8.60;99.90;;;;;;5102905;28;20457;-71
2023/04/07 01:54:30;;;;;;;55.27;32.33;;;8.70;99.90;;;;;;5103198;28;20840;-71
2023/04/07 01:56:57;;;;;;;53.97;29.93;;;8.70;99.90;;;;;;5102764;28;20453;-70
2023/04/07 01:59:24;;;;;;;50.53;28.77;;;8.60;99.90;;;;;;5095675;28;20590;-70
2023/04/07 02:01:51;;;;;;;61.77;30.27;;;8.60;99.90;;;;;;5094627;28;20508;-69
2023/04/07 02:04:25;;;;;;;55.17;29.20;;;8.60;99.90;;;;;;5094712;28;20877;-71
2023/04/07 02:06:59;;;;;;;56.67;30.50;;;8.60;99.90;;;;;;5100635;28;21038;-71
2023/04/07 02:09:29;;;;;;;50.40;30.00;;;8.60;99.90;;;;;;5102921;28;20461;-71
2023/04/07 02:11:59;;;;;;;47.23;28.47;;;8.60;99.90;;;;;;5088656;28;20454;-70
2023/04/07 02:14:27;;;;;;;65.20;31.53;;;8.60;99.90;;;;;;5100961;28;20525;-71
2023/04/07 02:16:56;;;;;;;47.93;30.83;;;8.50;99.90;;;;;;5094358;28;20462;-70
2023/04/07 02:19:24;;;;;;;65.37;33.60;;;8.50;99.90;;;;;;5100991;28;20593;-71
2023/04/07 02:21:53;;;;;;;57.23;31.03;;;8.60;99.90;;;;;;5087400;28;20514;-70
2023/04/07 02:24:21;;;;;;;52.10;27.60;;;8.50;99.90;;;;;;5100940;28;20462;-71
2023/04/07 02:26:48;;;;;;;59.30;30.70;;;8.50;99.90;;;;;;5101044;28;20543;-71
2023/04/07 02:29:15;;;;;;;60.30;29.20;;;8.40;99.90;;;;;;5094721;28;20461;-70
2023/04/07 02:31:42;;;;;;;61.17;29.03;;;8.40;99.90;;;;;;5095409;28;20457;-70
2023/04/07 02:34:08;;;;;;;65.10;31.20;;;8.40;99.90;;;;;;5106042;28;20497;-71
2023/04/07 02:36:35;;;;;;;53.77;29.27;;;8.40;99.90;;;;;;5095396;28;20458;-71
2023/04/07 02:39:06;;;;;;;49.40;23.90;;;8.40;99.90;;;;;;5101017;28;20910;-70
2023/04/07 02:41:33;;;;;;;47.23;26.27;;;8.40;99.90;;;;;;5088973;28;20505;-69
2023/04/07 02:43:59;;;;;;;52.70;29.03;;;8.30;99.90;;;;;;5096495;28;20489;-71
2023/04/07 02:46:26;;;;;;;50.60;29.17;;;8.30;99.90;;;;;;5095064;28;20519;-71
2023/04/07 02:48:53;;;;;;;52.10;27.43;;;8.30;99.90;;;;;;5095098;28;21037;-70
2023/04/07 02:51:20;;;;;;;62.17;28.97;;;8.30;99.90;;;;;;5101689;28;20811;-70
2023/04/07 02:53:46;;;;;;;51.90;27.33;;;8.30;99.90;;;;;;5101647;28;20870;-70
2023/04/07 02:56:16;;;;;;;54.40;25.30;;;8.20;99.90;;;;;;5096454;28;20461;-71
2023/04/07 02:58:43;;;;;;;65.67;29.33;;;8.20;99.90;;;;;;5107461;28;20904;-71
2023/04/07 03:01:10;;;;;;;54.10;29.90;;;8.20;99.90;;;;;;5086235;28;20531;-71
2023/04/07 03:03:38;;;;;;;58.33;28.00;;;8.20;99.90;;;;;;5087973;28;20476;-70
2023/04/07 03:06:05;;;;;;;63.73;29.17;;;8.10;99.90;;;;;;5089101;28;20536;-71
2023/04/07 03:08:32;;;;;;;67.23;30.67;;;8.10;99.90;;;;;;5102315;28;20509;-69
2023/04/07 03:11:00;;;;;;;61.63;26.30;;;8.10;99.90;;;;;;5094502;28;20458;-70
2023/04/07 03:13:29;;;;;;;45.20;24.50;;;8.10;99.90;;;;;;5101540;28;20477;-70
2023/04/07 03:15:56;;;;;;;52.83;30.90;;;8.10;99.90;;;;;;5090779;28;21038;-70
2023/04/07 03:18:24;;;;;;;56.10;28.07;;;8.10;99.90;;;;;;5092042;28;20556;-70
2023/04/07 03:20:54;;;;;;;50.87;26.30;;;8.10;99.90;;;;;;5097622;28;20465;-71
2023/04/07 03:23:22;;;;;;;59.20;28.07;;;8.10;99.90;;;;;;5101550;28;20828;-70
2023/04/07 03:25:49;;;;;;;59.67;30.43;;;8.00;99.90;;;;;;5099940;28;20488;-71
2023/04/07 03:28:16;;;;;;;53.03;26.73;;;8.00;99.90;;;;;;5094992;28;20515;-71
2023/04/07 03:30:45;;;;;;;54.97;27.33;;;8.10;99.90;;;;;;5094480;28;20945;-71
2023/04/07 03:33:12;;;;;;;51.73;25.10;;;8.00;99.90;;;;;;5100462;28;20587;-71
2023/04/07 03:35:39;;;;;;;59.67;29.13;;;8.00;99.90;;;;;;5100959;28;20457;-71
2023/04/07 03:38:06;;;;;;;51.63;26.43;;;8.00;99.90;;;;;;5094336;28;20483;-71
2023/04/07 03:40:34;;;;;;;51.13;25.30;;;8.10;99.90;;;;;;5095018;28;20465;-71
2023/04/07 03:43:02;;;;;;;45.37;26.73;;;8.00;99.90;;;;;;5076173;28;20858;-71
2023/04/07 03:45:28;;;;;;;48.17;27.50;;;8.10;99.90;;;;;;5088839;28;20976;-70
2023/04/07 03:47:56;;;;;;;52.90;26.93;;;8.10;99.90;;;;;;5100511;28;20465;-70
2023/04/07 03:50:23;;;;;;;50.17;25.53;;;8.10;99.90;;;;;;5101300;28;20475;-71
2023/04/07 03:52:51;;;;;;;51.10;25.80;;;8.10;99.90;;;;;;5095605;28;20461;-70
2023/04/07 03:55:17;;;;;;;57.60;25.93;;;8.20;99.90;;;;;;5094477;28;20464;-71
2023/04/07 03:57:44;;;;;;;36.17;22.57;;;8.20;99.90;;;;;;5102017;28;20743;-70
2023/04/07 04:00:13;;;;;;;31.67;20.60;;;8.10;99.90;;;;;;5100968;28;20452;-70
2023/04/07 04:02:40;;;;;;;33.00;19.00;;;8.10;99.90;;;;;;5087710;28;20933;-70
2023/04/07 04:05:08;;;;;;;36.27;19.43;;;8.00;99.90;;;;;;5090604;28;20468;-70
2023/04/07 04:07:36;;;;;;;34.80;21.40;;;8.00;99.90;;;;;;5098257;28;21010;-71
2023/04/07 04:10:04;;;;;;;29.00;18.53;;;7.90;99.90;;;;;;5101314;28;20546;-70
2023/04/07 04:12:31;;;;;;;30.37;20.10;;;8.00;99.90;;;;;;5087806;28;20463;-71
2023/04/07 04:14:57;;;;;;;30.77;19.50;;;8.00;99.90;;;;;;5100951;28;20485;-70
2023/04/07 04:17:25;;;;;;;39.40;20.03;;;7.90;99.90;;;;;;5089003;28;20454;-70
2023/04/07 04:19:53;;;;;;;27.47;18.80;;;8.00;99.90;;;;;;5100848;28;20462;-70
2023/04/07 04:22:21;;;;;;;32.40;16.80;;;7.90;99.90;;;;;;5099813;28;20471;-70
2023/04/07 04:24:48;;;;;;;27.60;18.20;;;7.90;99.90;;;;;;5101476;28;20466;-70
2023/04/07 04:27:14;;;;;;;24.70;17.17;;;8.00;99.90;;;;;;5104878;28;20655;-69
2023/04/07 04:29:42;;;;;;;25.07;16.67;;;8.00;99.90;;;;;;5101862;28;20941;-71
2023/04/07 04:32:08;;;;;;;21.80;15.37;;;8.00;99.90;;;;;;5097550;28;20958;-71
2023/04/07 04:34:36;;;;;;;29.27;16.30;;;8.00;99.90;;;;;;5100831;28;20521;-69
2023/04/07 04:37:04;;;;;;;19.97;15.00;;;8.00;99.90;;;;;;5104876;28;20461;-70
2023/04/07 04:39:32;;;;;;;28.23;17.57;;;8.00;99.90;;;;;;5099153;28;20450;-71
2023/04/07 04:42:00;;;;;;;28.53;17.27;;;7.90;99.90;;;;;;5109321;28;20452;-69
2023/04/07 04:44:29;;;;;;;28.90;17.50;;;7.90;99.90;;;;;;5101533;28;20449;-70
2023/04/07 04:46:56;;;;;;;22.50;14.13;;;7.90;99.90;;;;;;5099801;28;20478;-71
2023/04/07 04:49:24;;;;;;;25.40;15.13;;;7.90;99.90;;;;;;5098560;28;20816;-70
2023/04/07 04:51:51;;;;;;;30.80;16.90;;;7.90;99.90;;;;;;5104312;28;20864;-71
2023/04/07 04:54:19;;;;;;;30.03;17.37;;;7.90;99.90;;;;;;5103907;28;20510;-71
2023/04/07 04:56:47;;;;;;;25.90;17.80;;;7.90;99.90;;;;;;5100990;28;20452;-71
2023/04/07 04:59:14;;;;;;;26.43;17.63;;;8.00;99.90;;;;;;5097276;28;20549;-71
2023/04/07 05:01:41;;;;;;;28.93;17.13;;;8.00;99.90;;;;;;5097179;28;20461;-70
2023/04/07 05:04:09;;;;;;;28.03;15.63;;;8.00;99.90;;;;;;5097314;28;20469;-70
2023/04/07 05:06:35;;;;;;;22.73;15.00;;;8.00;99.90;;;;;;5101681;28;20456;-71
2023/04/07 05:09:02;;;;;;;26.17;16.20;;;8.00;99.90;;;;;;5096905;28;20457;-71
2023/04/07 05:11:29;;;;;;;25.13;15.27;;;8.00;99.90;;;;;;5102414;28;20465;-71
2023/04/07 05:13:58;;;;;;;20.77;14.50;;;8.00;99.90;;;;;;5103692;28;20909;-70
2023/04/07 05:16:25;;;;;;;17.40;14.03;;;7.90;99.90;;;;;;5081998;28;20953;-69
2023/04/07 05:18:52;;;;;;;23.10;14.07;;;7.90;99.90;;;;;;5104238;28;20541;-70
2023/04/07 05:21:20;;;;;;;19.80;14.00;;;7.70;99.90;;;;;;5091376;28;20461;-71
2023/04/07 05:23:48;;;;;;;20.27;13.30;;;7.70;99.90;;;;;;5103342;28;20461;-70
2023/04/07 05:26:14;;;;;;;17.23;11.50;;;7.70;99.90;;;;;;5098599;28;20890;-71
2023/04/07 05:28:42;;;;;;;18.27;13.00;;;7.60;99.90;;;;;;5093585;28;20846;-70
2023/04/07 05:31:11;;;;;;;20.20;13.60;;;7.60;99.90;;;;;;5099961;28;20875;-69
2023/04/07 05:33:38;;;;;;;16.10;12.20;;;7.70;99.90;;;;;;5102784;28;20482;-71
2023/04/07 05:36:05;;;;;;;17.00;12.47;;;7.70;99.90;;;;;;5100992;28;20472;-69
2023/04/07 05:38:32;;;;;;;13.27;10.10;;;7.70;99.90;;;;;;5096600;28;20483;-70
2023/04/07 05:40:59;;;;;;;14.90;11.20;;;7.70;99.90;;;;;;5099251;28;20957;-70
2023/04/07 05:43:26;;;;;;;16.80;11.70;;;7.70;99.90;;;;;;5103523;28;20813;-70
2023/04/07 05:45:52;;;;;;;19.10;11.30;;;7.70;99.90;;;;;;5094967;28;20546;-70
2023/04/07 05:48:21;;;;;;;16.40;10.37;;;7.70;99.90;;;;;;5095308;28;20461;-68
2023/04/07 05:50:48;;;;;;;19.20;12.10;;;7.80;99.90;;;;;;5097361;28;20465;-70
2023/04/07 05:53:16;;;;;;;19.13;11.40;;;7.70;99.90;;;;;;5103535;28;20458;-70
2023/04/07 05:55:43;;;;;;;18.13;10.47;;;7.70;99.90;;;;;;5094599;28;20510;-70
2023/04/07 05:58:10;;;;;;;20.63;11.90;;;7.70;99.90;;;;;;5103405;28;20487;-70
2023/04/07 06:00:37;;;;;;;25.27;12.97;;;7.70;99.90;;;;;;5098420;28;20454;-71
2023/04/07 06:03:04;;;;;;;17.50;11.77;;;7.80;99.90;;;;;;5101562;28;20555;-70
2023/04/07 06:05:33;;;;;;;15.23;11.67;;;7.80;99.90;;;;;;5107272;28;20814;-69
2023/04/07 06:08:01;;;;;;;17.63;11.67;;;7.80;99.90;;;;;;5096858;28;20936;-70
2023/04/07 06:10:28;;;;;;;23.50;12.23;;;7.90;99.90;;;;;;5102855;28;20465;-70
2023/04/07 06:12:55;;;;;;;22.03;12.40;;;7.80;99.90;;;;;;5088628;28;20955;-70
2023/04/07 06:15:22;;;;;;;19.53;11.80;;;7.80;99.90;;;;;;5077131;28;20497;-69
2023/04/07 06:17:50;;;;;;;15.90;11.43;;;7.80;99.90;;;;;;5089003;28;20461;-69
2023/04/07 06:20:18;;;;;;;18.50;12.20;;;7.80;99.90;;;;;;5102154;28;20484;-69
2023/04/07 06:22:46;;;;;;;25.50;13.50;;;7.90;99.90;;;;;;5103067;28;20966;-69
2023/04/07 06:25:14;;;;;;;17.40;10.90;;;7.90;99.90;;;;;;5093291;28;20465;-69
2023/04/07 06:27:40;;;;;;;17.20;11.90;;;7.80;99.90;;;;;;5103465;28;20506;-69
2023/04/07 06:30:08;;;;;;;14.90;11.23;;;7.90;99.90;;;;;;5100649;28;20470;-70
2023/04/07 06:32:35;;;;;;;21.90;12.07;;;7.90;99.90;;;;;;5093430;28;20461;-69
2023/04/07 06:35:02;;;;;;;19.07;11.57;;;7.90;99.90;;;;;;5094041;28;21244;-69
2023/04/07 06:37:29;;;;;;;18.83;12.23;;;7.90;99.90;;;;;;5089929;28;20580;-69
2023/04/07 06:39:57;;;;;;;18.43;11.40;;;7.90;99.90;;;;;;5091099;28;20450;-69
2023/04/07 06:42:25;;;;;;;17.80;12.27;;;7.90;99.90;;;;;;5087449;28;20461;-69
2023/04/07 06:44:52;;;;;;;17.27;12.90;;;7.80;99.90;;;;;;5087305;28;20612;-69
2023/04/07 06:47:19;;;;;;;22.50;13.10;;;7.80;99.90;;;;;;5087244;28;20476;-69
2023/04/07 06:49:45;;;;;;;23.50;13.67;;;7.80;99.90;;;;;;5093136;28;20857;-70
2023/04/07 06:52:12;;;;;;;15.70;12.37;;;7.90;99.90;;;;;;5088687;28;20940;-69
2023/04/07 06:54:40;;;;;;;19.90;12.27;;;7.90;99.90;;;;;;5098804;28;20480;-70
2023/04/07 06:57:11;;;;;;;19.30;13.70;;;8.00;99.90;;;;;;5106692;28;20457;-69
2023/04/07 06:59:37;;;;;;;21.93;13.70;;;7.90;99.90;;;;;;5096664;28;20907;-70
2023/04/07 07:02:06;;;;;;;23.47;13.93;;;8.00;99.90;;;;;;5095474;28;20510;-69
2023/04/07 07:04:32;;;;;;;20.03;14.17;;;8.00;99.90;;;;;;5090420;28;20461;-69
2023/04/07 07:06:59;;;;;;;23.60;14.13;;;8.20;99.90;;;;;;5094862;28;20509;-70
2023/04/07 07:09:26;;;;;;;18.27;12.67;;;8.20;99.90;;;;;;5095694;28;20458;-70
2023/04/07 07:11:53;;;;;;;18.73;13.77;;;8.10;99.90;;;;;;5096525;28;20542;-69
2023/04/07 07:14:22;;;;;;;15.67;12.20;;;8.20;99.90;;;;;;5081927;28;20566;-70
2023/04/07 07:16:49;;;;;;;19.67;14.17;;;8.30;99.90;;;;;;5090028;28;20454;-69
2023/04/07 07:19:16;;;;;;;17.30;11.77;;;8.40;99.90;;;;;;5091374;28;20488;-70
2023/04/07 07:21:43;;;;;;;17.90;13.07;;;8.40;99.90;;;;;;5096805;28;20450;-70
2023/04/07 07:24:10;;;;;;;22.67;13.43;;;8.40;99.90;;;;;;5099568;28;20457;-70
2023/04/07 07:26:38;;;;;;;30.37;12.47;;;8.50;99.90;;;;;;5098026;28;20458;-70
2023/04/07 07:29:05;;;;;;;14.90;12.17;;;8.50;99.90;;;;;;5090575;28;20556;-69
2023/04/07 07:31:33;;;;;;;21.30;12.30;;;8.60;99.90;;;;;;5089171;28;20458;-71
2023/04/07 12:39:27;;;;;;;14.93;13.93;;;11.60;99.90;;;;;;4952357;28;21611;-69
2023/04/07 12:41:57;;;;;;;14.07;12.97;;;11.70;99.90;;;;;;5061838;28;20451;-70
2023/04/07 12:44:24;;;;;;;13.60;12.47;;;11.60;99.90;;;;;;5080399;28;21032;-70
2023/04/07 12:46:52;;;;;;;12.70;11.87;;;11.60;99.90;;;;;;5087787;28;20496;-69
2023/04/07 12:49:20;;;;;;;12.70;11.47;;;11.50;99.90;;;;;;5087750;28;20951;-69
2023/04/07 12:51:47;;;;;;;14.73;13.60;;;11.60;99.90;;;;;;5095688;28;20555;-69
2023/04/07 12:54:14;;;;;;;13.20;12.00;;;11.40;99.90;;;;;;5093792;28;20454;-70
2023/04/07 12:56:41;;;;;;;14.63;12.87;;;11.20;99.90;;;;;;5103195;28;20557;-69
2023/04/07 12:59:10;;;;;;;11.70;10.90;;;10.90;99.90;;;;;;5096728;28;20464;-70
2023/04/07 13:01:37;;;;;;;9.63;9.03;;;11.00;99.90;;;;;;5099093;28;20460;-69
2023/04/07 13:04:05;;;;;;;11.20;10.30;;;11.10;99.90;;;;;;5089571;28;20472;-70
2023/04/07 13:06:32;;;;;;;12.80;11.90;;;11.10;99.90;;;;;;5095079;28;20713;-70
2023/04/07 13:08:59;;;;;;;12.47;11.47;;;11.10;99.90;;;;;;5091304;28;20854;-70
2023/04/07 13:11:26;;;;;;;10.97;10.37;;;11.00;99.90;;;;;;5095726;28;20453;-69
2023/04/07 13:13:54;;;;;;;19.63;12.20;;;11.00;99.90;;;;;;5092057;28;20543;-70
2023/04/07 13:16:22;;;;;;;13.27;12.40;;;11.00;99.90;;;;;;5092233;28;20528;-68
2023/04/07 13:18:48;;;;;;;11.40;10.70;;;11.10;99.90;;;;;;5090529;28;20512;-69
2023/04/07 13:21:16;;;;;;;12.87;11.97;;;11.30;99.90;;;;;;5099989;28;20927;-69
2023/04/07 13:23:42;;;;;;;14.03;12.63;;;11.30;99.90;;;;;;5093512;28;21048;-69
2023/04/07 13:26:09;;;;;;;12.80;11.80;;;11.30;99.90;;;;;;5104191;28;20462;-70
2023/04/07 13:28:36;;;;;;;15.00;13.70;;;11.30;99.90;;;;;;5093065;28;20881;-70
2023/04/07 13:31:04;;;;;;;12.37;11.67;;;11.30;99.90;;;;;;5088501;28;20489;-70
2023/04/07 13:33:32;;;;;;;13.30;12.40;;;11.30;99.90;;;;;;5094694;28;20465;-70
2023/04/07 13:36:01;;;;;;;14.03;12.90;;;11.10;99.90;;;;;;5087191;28;20474;-70
2023/04/07 13:38:27;;;;;;;10.50;9.90;;;11.00;99.90;;;;;;5090357;28;20474;-69
2023/04/07 13:40:54;;;;;;;11.23;10.63;;;11.00;99.90;;;;;;5095434;28;20511;-68
2023/04/07 13:43:21;;;;;;;11.53;10.53;;;10.90;99.90;;;;;;5095257;28;20556;-69
2023/04/07 13:45:49;;;;;;;10.70;10.10;;;10.80;99.90;;;;;;5090824;28;20524;-69
2023/04/07 13:48:16;;;;;;;15.03;13.53;;;10.90;99.90;;;;;;5082829;28;20455;-69
2023/04/07 13:50:44;;;;;;;12.77;11.60;;;10.90;99.90;;;;;;5088573;28;20485;-70
2023/04/07 13:53:11;;;;;;;18.27;12.90;;;11.00;99.90;;;;;;5094666;28;20499;-69
2023/04/07 13:55:38;;;;;;;11.90;10.80;;;11.00;99.90;;;;;;5090255;28;20454;-69
2023/04/07 13:58:06;;;;;;;11.97;10.97;;;11.00;99.90;;;;;;5091493;28;20488;-69
2023/04/07 14:00:34;;;;;;;9.13;8.73;;;11.00;99.90;;;;;;5087777;28;20453;-69
2023/04/07 14:03:02;;;;;;;9.63;9.03;;;11.00;99.90;;;;;;5087607;28;20481;-69
2023/04/07 14:05:29;;;;;;;17.57;8.67;;;11.00;99.90;;;;;;5082609;28;20454;-70
2023/04/07 14:07:57;;;;;;;9.73;9.23;;;11.10;99.90;;;;;;5091091;28;20574;-72
2023/04/07 14:10:24;;;;;;;12.30;11.20;;;10.90;99.90;;;;;;5088150;28;20527;-71
2023/04/07 14:12:51;;;;;;;18.70;11.40;;;10.80;99.90;;;;;;5091084;28;20952;-69
2023/04/07 14:15:17;;;;;;;12.97;11.97;;;10.90;99.90;;;;;;5089467;28;20826;-70
2023/04/07 14:17:44;;;;;;;12.53;11.67;;;11.00;99.90;;;;;;5091546;28;20485;-69
2023/04/07 14:20:12;;;;;;;10.60;9.80;;;11.10;99.90;;;;;;5093226;28;20853;-71
2023/04/07 14:22:38;;;;;;;10.47;9.77;;;11.20;99.90;;;;;;5091231;28;20465;-69
2023/04/07 14:25:07;;;;;;;10.70;10.13;;;11.30;99.90;;;;;;5094717;28;20462;-71
2023/04/07 14:27:34;;;;;;;10.20;9.70;;;11.10;99.90;;;;;;5092483;28;20462;-71
2023/04/07 14:30:01;;;;;;;12.10;11.10;;;11.00;99.90;;;;;;5087434;28;20462;-70
2023/04/07 14:32:28;;;;;;;11.83;10.93;;;11.10;99.90;;;;;;5087677;28;20462;-70
2023/04/07 14:34:55;;;;;;;13.50;12.40;;;11.20;99.90;;;;;;5095463;28;20495;-69
2023/04/07 14:37:25;;;;;;;13.47;12.30;;;11.20;99.90;;;;;;5090916;28;20547;-71
2023/04/07 14:39:52;;;;;;;13.00;11.93;;;11.20;99.90;;;;;;5087836;28;20549;-70
2023/04/07 14:42:20;;;;;;;9.90;9.50;;;11.30;99.90;;;;;;5091295;28;20553;-69
2023/04/07 14:44:47;;;;;;;12.60;11.33;;;11.30;99.90;;;;;;5086764;28;20516;-71
2023/04/07 14:47:15;;;;;;;9.37;8.97;;;11.10;99.90;;;;;;5084985;28;20486;-70
2023/04/07 14:49:42;;;;;;;9.17;8.80;;;11.00;99.90;;;;;;5093964;28;20857;-70
2023/04/07 14:52:09;;;;;;;9.43;8.87;;;10.90;99.90;;;;;;5100768;28;20535;-70
2023/04/07 14:54:36;;;;;;;8.33;7.93;;;10.90;99.90;;;;;;5088628;28;20449;-69
2023/04/07 14:57:03;;;;;;;9.43;8.93;;;11.10;99.90;;;;;;5092879;28;20493;-70
2023/04/07 14:59:31;;;;;;;9.93;9.20;;;11.30;99.90;;;;;;5092266;28;20462;-71
2023/04/07 15:01:58;;;;;;;10.57;9.70;;;11.50;99.90;;;;;;5091734;28;20578;-71
2023/04/07 15:04:25;;;;;;;8.17;7.87;;;11.70;99.90;;;;;;5091618;28;20507;-69
2023/04/07 15:06:52;;;;;;;8.37;8.07;;;11.80;99.90;;;;;;5087805;28;20810;-68
2023/04/07 15:09:19;;;;;;;9.60;9.00;;;11.90;99.90;;;;;;5089033;28;20466;-68
2023/04/07 15:11:46;;;;;;;10.13;9.60;;;11.80;99.90;;;;;;5087949;28;20461;-69
2023/04/07 15:14:14;;;;;;;10.03;8.97;;;11.60;99.90;;;;;;5088854;28;20813;-69
2023/04/07 15:16:42;;;;;;;8.00;7.50;;;11.40;99.90;;;;;;5078846;28;20481;-69
2023/04/07 15:19:09;;;;;;;9.80;9.07;;;11.40;99.90;;;;;;5085331;28;20459;-70
2023/04/07 15:21:36;;;;;;;8.07;7.47;;;11.40;99.90;;;;;;5089839;28;20873;-70
2023/04/07 15:24:03;;;;;;;8.03;7.37;;;11.30;99.90;;;;;;5083147;28;20948;-70
2023/04/07 15:26:30;;;;;;;12.50;11.33;;;11.30;99.90;;;;;;5081777;28;20945;-69
2023/04/07 15:28:57;;;;;;;11.53;10.33;;;11.30;99.90;;;;;;5095447;28;20461;-71
2023/04/07 15:31:25;;;;;;;12.50;11.40;;;11.30;99.90;;;;;;5090750;28;20955;-70
2023/04/07 15:33:54;;;;;;;16.10;12.50;;;11.30;99.90;;;;;;5072892;28;20462;-70
2023/04/07 15:36:21;;;;;;;12.70;11.90;;;11.30;99.90;;;;;;5083643;28;20935;-70
2023/04/07 15:38:47;;;;;;;12.80;11.70;;;11.40;99.90;;;;;;5080507;28;21036;-70
2023/04/07 15:41:15;;;;;;;15.03;13.80;;;11.40;99.90;;;;;;5079008;28;20810;-70
2023/04/07 15:43:42;;;;;;;15.93;13.40;;;11.70;99.90;;;;;;5084298;28;20874;-69
2023/04/07 15:46:09;;;;;;;15.23;14.03;;;11.60;99.90;;;;;;5087192;28;20995;-70
2023/04/07 15:48:36;;;;;;;16.07;14.50;;;11.70;99.90;;;;;;5085334;28;20495;-72
2023/04/07 15:51:04;;;;;;;16.27;13.57;;;11.50;99.90;;;;;;5086164;28;20464;-70
2023/04/07 15:53:32;;;;;;;15.33;13.93;;;11.70;99.90;;;;;;5101636;28;20936;-70
2023/04/07 15:55:58;;;;;;;15.53;14.23;;;11.70;99.90;;;;;;5099722;28;20465;-70
2023/04/07 15:58:25;;;;;;;15.97;14.27;;;11.60;99.90;;;;;;5102419;28;20501;-71
2023/04/07 16:00:53;;;;;;;15.80;14.30;;;11.60;99.90;;;;;;5093213;28;20458;-70
2023/04/07 16:03:20;;;;;;;21.07;14.00;;;11.60;99.90;;;;;;5093635;28;20482;-71
2023/04/07 16:05:47;;;;;;;15.77;14.07;;;11.60;99.90;;;;;;5094553;28;20462;-71
2023/04/07 16:08:15;;;;;;;14.23;13.23;;;11.50;99.90;;;;;;5101170;28;20462;-70
2023/04/07 16:10:42;;;;;;;14.80;13.50;;;11.50;99.90;;;;;;5101072;28;20472;-71
2023/04/07 16:13:08;;;;;;;15.27;14.10;;;11.40;99.90;;;;;;5100822;28;20493;-71
2023/04/07 16:15:35;;;;;;;15.60;14.17;;;11.40;99.90;;;;;;5097051;28;20469;-70
2023/04/07 16:18:05;;;;;;;14.17;13.13;;;11.20;99.90;;;;;;5101727;28;20492;-69
2023/04/07 16:20:33;;;;;;;16.07;14.43;;;11.10;99.90;;;;;;5098018;28;20465;-70
2023/04/07 16:22:59;;;;;;;16.17;14.60;;;11.00;99.90;;;;;;5103614;28;20458;-70
2023/04/07 16:25:28;;;;;;;14.87;13.57;;;11.00;99.90;;;;;;5105059;28;20464;-70
2023/04/07 16:27:55;;;;;;;15.30;13.97;;;10.80;99.90;;;;;;5095923;28;20458;-70
2023/04/07 16:30:24;;;;;;;14.90;13.43;;;10.80;99.90;;;;;;5104153;28;20469;-69
2023/04/07 16:32:51;;;;;;;26.50;19.43;;;10.70;99.90;;;;;;5101292;28;20961;-70
2023/04/07 16:35:18;;;;;;;16.03;14.37;;;10.70;99.90;;;;;;5097822;28;21024;-70
2023/04/07 16:37:46;;;;;;;15.40;13.23;;;10.70;99.90;;;;;;5101525;28;20502;-69
2023/04/07 16:40:13;;;;;;;9.93;9.33;;;10.70;99.90;;;;;;5102598;28;20963;-69
2023/04/07 16:42:41;;;;;;;9.93;9.40;;;10.70;99.90;;;;;;5109169;28;20480;-70
2023/04/07 16:45:08;;;;;;;7.87;7.57;;;10.70;99.90;;;;;;5101573;28;20457;-69
2023/04/07 16:47:37;;;;;;;8.50;8.10;;;10.70;99.90;;;;;;5102668;28;20484;-70
2023/04/07 16:50:05;;;;;;;10.57;9.67;;;10.60;99.90;;;;;;5097662;28;20461;-69
2023/04/07 16:52:32;;;;;;;8.83;8.33;;;10.60;99.90;;;;;;5099514;28;20476;-69
2023/04/07 16:55:00;;;;;;;9.10;8.60;;;10.50;99.90;;;;;;5104244;28;20481;-70
2023/04/07 16:57:27;;;;;;;8.10;7.17;;;10.40;99.90;;;;;;5108001;28;20479;-69
2023/04/07 16:59:55;;;;;;;8.23;7.73;;;10.30;99.90;;;;;;5097798;28;20457;-70
2023/04/07 17:02:22;;;;;;;9.80;7.60;;;10.20;99.90;;;;;;5091348;28;20465;-69
2023/04/07 17:04:49;;;;;;;8.50;8.00;;;10.20;99.90;;;;;;5104277;28;20481;-72
2023/04/07 17:07:16;;;;;;;8.70;8.10;;;10.20;99.90;;;;;;5104039;28;20803;-72
2023/04/07 17:09:43;;;;;;;6.70;6.47;;;10.20;99.90;;;;;;5079752;28;20450;-72
2023/04/07 17:12:10;;;;;;;7.30;5.93;;;10.10;99.90;;;;;;5091819;28;20466;-70
2023/04/07 17:14:37;;;;;;;10.47;9.10;;;10.10;99.90;;;;;;5103521;28;20469;-72
2023/04/07 17:17:06;;;;;;;9.00;8.30;;;10.10;99.90;;;;;;5099185;28;20881;-71
2023/04/07 17:19:34;;;;;;;7.27;6.87;;;10.10;99.90;;;;;;5102609;28;21597;-69
2023/04/07 17:22:01;;;;;;;8.40;8.00;;;10.20;99.90;;;;;;5093052;28;20455;-69
2023/04/07 17:24:28;;;;;;;6.83;6.63;;;10.20;99.90;;;;;;5101793;28;20871;-69
2023/04/07 17:26:55;;;;;;;10.67;9.87;;;10.20;99.90;;;;;;5090496;28;20523;-70
2023/04/07 17:29:27;;;;;;;21.03;11.10;;;10.10;99.90;;;;;;5103259;28;20457;-70
2023/04/07 17:31:55;;;;;;;16.10;11.70;;;10.10;99.90;;;;;;5094673;28;20465;-70
2023/04/07 17:34:23;;;;;;;16.73;10.80;;;10.10;99.90;;;;;;5104036;28;20544;-69
2023/04/07 17:36:51;;;;;;;14.23;11.63;;;10.00;99.90;;;;;;5099027;28;20461;-69
2023/04/07 17:39:18;;;;;;;20.87;11.17;;;10.00;99.90;;;;;;5094974;28;20510;-69
2023/04/07 17:41:46;;;;;;;20.30;11.30;;;10.00;99.90;;;;;;5095638;28;20486;-70
2023/04/07 17:44:13;;;;;;;12.87;11.73;;;10.00;99.90;;;;;;5101667;28;20887;-69